TKY78M LIBR-LDPL
Flight info
| Callsign | TKY78M |
|---|---|
| Flight time | 0h 53m |
| Altitude | 34000 |
| Route | ENOXA DCT AIOSA DCT SAL DCT LOS |
| Aircraft | A20N/M-SDE2E3FGHIRWXY/LB1 |
Departure
| Time | 2026-04-25 12:45 |
|---|---|
| Airport | Brindisi Airport (LIBR) |
Arrival
| Time | 2026-04-25 13:38 |
|---|---|
| Airport | Pula Airport (LDPL) |
| Time | Latitude | Longitude | Altitude | Speed | Heading |
|---|---|---|---|---|---|
| 2026-04-25 12:20 | 40.65760 | 17.94019 | 44 ft | 0 kts | 322° |
| 2026-04-25 12:37 | 40.65757 | 17.94021 | 44 ft | 3 kts | 322° |
| 2026-04-25 12:37 | 40.65739 | 17.94039 | 43 ft | 3 kts | 322° |
| 2026-04-25 12:37 | 40.65721 | 17.94057 | 44 ft | 3 kts | 323° |
| 2026-04-25 12:38 | 40.65703 | 17.94075 | 42 ft | 3 kts | 329° |
| 2026-04-25 12:38 | 40.65683 | 17.94088 | 41 ft | 3 kts | 351° |
| 2026-04-25 12:38 | 40.65667 | 17.94086 | 40 ft | 1 kts | 52° |
| 2026-04-25 12:38 | 40.65667 | 17.94085 | 40 ft | 0 kts | 52° |
| 2026-04-25 12:40 | 40.65667 | 17.94086 | 40 ft | 0 kts | 52° |
| 2026-04-25 12:40 | 40.65680 | 17.94109 | 42 ft | 7 kts | 52° |
| 2026-04-25 12:41 | 40.65729 | 17.94193 | 43 ft | 15 kts | 53° |
| 2026-04-25 12:41 | 40.65797 | 17.94309 | 43 ft | 17 kts | 52° |
| 2026-04-25 12:41 | 40.65878 | 17.94443 | 42 ft | 20 kts | 52° |
| 2026-04-25 12:41 | 40.65969 | 17.94600 | 39 ft | 23 kts | 52° |
| 2026-04-25 12:42 | 40.66018 | 17.94746 | 43 ft | 16 kts | 106° |
| 2026-04-25 12:42 | 40.66000 | 17.94787 | 43 ft | 16 kts | 133° |
| 2026-04-25 12:42 | 40.65835 | 17.94984 | 44 ft | 20 kts | 137° |
| 2026-04-25 12:42 | 40.65735 | 17.95104 | 44 ft | 17 kts | 138° |
| 2026-04-25 12:43 | 40.65629 | 17.95114 | 42 ft | 19 kts | 226° |
| 2026-04-25 12:43 | 40.65597 | 17.94984 | 38 ft | 14 kts | 311° |
| 2026-04-25 12:43 | 40.65614 | 17.94963 | 41 ft | 0 kts | 316° |
| 2026-04-25 12:44 | 40.65745 | 17.94803 | 41 ft | 61 kts | 317° |
| 2026-04-25 12:44 | 40.66868 | 17.93463 | 449 ft | 132 kts | 321° |
| 2026-04-25 12:45 | 40.67608 | 17.92666 | 1054 ft | 148 kts | 322° |
| 2026-04-25 12:45 | 40.68452 | 17.91779 | 1872 ft | 161 kts | 323° |
| 2026-04-25 12:45 | 40.70272 | 17.89868 | 3497 ft | 179 kts | 315° |
| 2026-04-25 12:46 | 40.71153 | 17.88601 | 4050 ft | 198 kts | 312° |
| 2026-04-25 12:46 | 40.72111 | 17.87193 | 4529 ft | 216 kts | 313° |
| 2026-04-25 12:46 | 40.73218 | 17.85676 | 4904 ft | 241 kts | 315° |
| 2026-04-25 12:46 | 40.74465 | 17.84070 | 5468 ft | 257 kts | 317° |
| 2026-04-25 12:47 | 40.75776 | 17.82436 | 6374 ft | 261 kts | 317° |
| 2026-04-25 12:47 | 40.77268 | 17.81158 | 7227 ft | 264 kts | 343° |
| 2026-04-25 12:47 | 40.79102 | 17.81119 | 8048 ft | 270 kts | 12° |
| 2026-04-25 12:47 | 40.80953 | 17.81604 | 8903 ft | 273 kts | 359° |
| 2026-04-25 12:48 | 40.82830 | 17.81201 | 9771 ft | 276 kts | 345° |
| 2026-04-25 12:48 | 40.84695 | 17.80450 | 10435 ft | 288 kts | 342° |
| 2026-04-25 12:48 | 40.86682 | 17.79596 | 10704 ft | 312 kts | 342° |
| 2026-04-25 12:48 | 40.88824 | 17.78712 | 11059 ft | 330 kts | 343° |
| 2026-04-25 12:49 | 40.91042 | 17.77840 | 11792 ft | 335 kts | 344° |
| 2026-04-25 12:49 | 40.93266 | 17.76992 | 12541 ft | 340 kts | 344° |
| 2026-04-25 12:49 | 40.95553 | 17.76131 | 13298 ft | 344 kts | 345° |
| 2026-04-25 12:49 | 40.97874 | 17.75262 | 14017 ft | 349 kts | 345° |
| 2026-04-25 12:50 | 41.00226 | 17.74381 | 14694 ft | 353 kts | 345° |
| 2026-04-25 12:50 | 41.02599 | 17.73492 | 15377 ft | 356 kts | 345° |
| 2026-04-25 12:50 | 41.04998 | 17.72591 | 16045 ft | 360 kts | 345° |
| 2026-04-25 12:50 | 41.07421 | 17.71680 | 16701 ft | 364 kts | 345° |
| 2026-04-25 12:51 | 41.09872 | 17.70759 | 17364 ft | 368 kts | 345° |
| 2026-04-25 12:51 | 41.12346 | 17.69828 | 18015 ft | 372 kts | 345° |
| 2026-04-25 12:51 | 41.14811 | 17.68899 | 18610 ft | 375 kts | 345° |
| 2026-04-25 12:51 | 41.17333 | 17.67948 | 19191 ft | 378 kts | 345° |
| 2026-04-25 12:52 | 41.19867 | 17.66962 | 19756 ft | 382 kts | 342° |
| 2026-04-25 12:52 | 41.22342 | 17.65638 | 20315 ft | 385 kts | 337° |
| 2026-04-25 12:52 | 41.24813 | 17.64210 | 20861 ft | 389 kts | 338° |
| 2026-04-25 12:52 | 41.27308 | 17.62780 | 21403 ft | 392 kts | 338° |
| 2026-04-25 12:53 | 41.29825 | 17.61341 | 21953 ft | 396 kts | 338° |
| 2026-04-25 12:53 | 41.31505 | 17.60379 | 22315 ft | 398 kts | 338° |
| 2026-04-25 12:53 | 41.34057 | 17.58917 | 22840 ft | 401 kts | 338° |
| 2026-04-25 12:53 | 41.37470 | 17.56958 | 23548 ft | 405 kts | 338° |
| 2026-04-25 12:54 | 41.40069 | 17.55464 | 24002 ft | 408 kts | 338° |
| 2026-04-25 12:54 | 41.42685 | 17.53958 | 24461 ft | 411 kts | 338° |
| 2026-04-25 12:54 | 41.45318 | 17.52441 | 24894 ft | 414 kts | 338° |
| 2026-04-25 12:54 | 41.47068 | 17.51432 | 25185 ft | 415 kts | 338° |
| 2026-04-25 12:55 | 41.49731 | 17.49896 | 25610 ft | 418 kts | 338° |
| 2026-04-25 12:55 | 41.51499 | 17.48875 | 25888 ft | 420 kts | 338° |
| 2026-04-25 12:55 | 41.55098 | 17.46795 | 26438 ft | 423 kts | 338° |
| 2026-04-25 12:55 | 41.58688 | 17.44718 | 26961 ft | 426 kts | 338° |
| 2026-04-25 12:56 | 41.61416 | 17.43138 | 27350 ft | 429 kts | 338° |
| 2026-04-25 12:56 | 41.63269 | 17.42064 | 27613 ft | 430 kts | 338° |
| 2026-04-25 12:56 | 41.65986 | 17.40488 | 27983 ft | 433 kts | 338° |
| 2026-04-25 12:56 | 41.68756 | 17.38880 | 28344 ft | 435 kts | 338° |
| 2026-04-25 12:57 | 41.71540 | 17.37262 | 28701 ft | 437 kts | 338° |
| 2026-04-25 12:57 | 41.74337 | 17.35635 | 29033 ft | 440 kts | 338° |
| 2026-04-25 12:57 | 41.77148 | 17.33998 | 29364 ft | 442 kts | 338° |
| 2026-04-25 12:57 | 41.79977 | 17.32349 | 29695 ft | 444 kts | 338° |
| 2026-04-25 12:58 | 41.82817 | 17.30693 | 30016 ft | 446 kts | 338° |
| 2026-04-25 12:58 | 41.85671 | 17.29026 | 30304 ft | 449 kts | 338° |
| 2026-04-25 12:58 | 41.88538 | 17.27350 | 30583 ft | 450 kts | 338° |
| 2026-04-25 12:58 | 41.91361 | 17.25634 | 30846 ft | 453 kts | 334° |
| 2026-04-25 12:59 | 41.94098 | 17.23505 | 31124 ft | 456 kts | 328° |
| 2026-04-25 12:59 | 41.96673 | 17.21000 | 31451 ft | 457 kts | 324° |
| 2026-04-25 12:59 | 41.99225 | 17.18448 | 31803 ft | 457 kts | 325° |
| 2026-04-25 12:59 | 42.01783 | 17.15909 | 32159 ft | 457 kts | 325° |
| 2026-04-25 13:00 | 42.04338 | 17.13373 | 32509 ft | 456 kts | 325° |
| 2026-04-25 13:00 | 42.06027 | 17.11695 | 32738 ft | 456 kts | 325° |
| 2026-04-25 13:00 | 42.09433 | 17.08299 | 33184 ft | 455 kts | 324° |
| 2026-04-25 13:00 | 42.11974 | 17.05760 | 33512 ft | 455 kts | 324° |
| 2026-04-25 13:01 | 42.14481 | 17.03251 | 33830 ft | 454 kts | 324° |
| 2026-04-25 13:01 | 42.17018 | 17.00709 | 34037 ft | 454 kts | 324° |
| 2026-04-25 13:01 | 42.22068 | 16.95640 | 34056 ft | 452 kts | 324° |
| 2026-04-25 13:02 | 42.27111 | 16.90569 | 34052 ft | 452 kts | 324° |
| 2026-04-25 13:02 | 42.32152 | 16.85490 | 34054 ft | 452 kts | 324° |
| 2026-04-25 13:03 | 42.37157 | 16.80437 | 34057 ft | 452 kts | 324° |
| 2026-04-25 13:03 | 42.42191 | 16.75345 | 34059 ft | 452 kts | 324° |
| 2026-04-25 13:04 | 42.47221 | 16.70245 | 34058 ft | 452 kts | 324° |
| 2026-04-25 13:04 | 42.52248 | 16.65138 | 34055 ft | 451 kts | 324° |
| 2026-04-25 13:05 | 42.57237 | 16.60060 | 34055 ft | 451 kts | 323° |
| 2026-04-25 13:05 | 42.62253 | 16.54942 | 34054 ft | 451 kts | 323° |
| 2026-04-25 13:06 | 42.67269 | 16.49815 | 34054 ft | 451 kts | 323° |
| 2026-04-25 13:06 | 42.72279 | 16.44682 | 34052 ft | 451 kts | 323° |
| 2026-04-25 13:07 | 42.77253 | 16.39576 | 34051 ft | 451 kts | 323° |
| 2026-04-25 13:07 | 42.82258 | 16.34428 | 34056 ft | 451 kts | 323° |
| 2026-04-25 13:08 | 42.87255 | 16.29277 | 34057 ft | 451 kts | 323° |
| 2026-04-25 13:08 | 42.92251 | 16.24116 | 34058 ft | 450 kts | 323° |
| 2026-04-25 13:09 | 42.97207 | 16.18987 | 34065 ft | 450 kts | 323° |
| 2026-04-25 13:09 | 43.02196 | 16.13813 | 34062 ft | 450 kts | 323° |
| 2026-04-25 13:10 | 43.07175 | 16.08637 | 34060 ft | 450 kts | 322° |
| 2026-04-25 13:10 | 43.12151 | 16.03454 | 34057 ft | 449 kts | 322° |
| 2026-04-25 13:11 | 43.17120 | 15.98267 | 34058 ft | 449 kts | 322° |
| 2026-04-25 13:11 | 43.22048 | 15.93113 | 34058 ft | 448 kts | 322° |
| 2026-04-25 13:12 | 43.27003 | 15.87919 | 34055 ft | 448 kts | 322° |
| 2026-04-25 13:12 | 43.31117 | 15.83597 | 34056 ft | 448 kts | 322° |
| 2026-04-25 13:13 | 43.36894 | 15.77518 | 34055 ft | 447 kts | 322° |
| 2026-04-25 13:13 | 43.41828 | 15.72313 | 34053 ft | 447 kts | 322° |
| 2026-04-25 13:14 | 43.46727 | 15.67134 | 34050 ft | 447 kts | 322° |
| 2026-04-25 13:14 | 43.51651 | 15.61918 | 34051 ft | 447 kts | 322° |
| 2026-04-25 13:15 | 43.56573 | 15.56693 | 34051 ft | 447 kts | 322° |
| 2026-04-25 13:15 | 43.61495 | 15.51457 | 33964 ft | 448 kts | 322° |
| 2026-04-25 13:16 | 43.63963 | 15.48827 | 33694 ft | 448 kts | 321° |
| 2026-04-25 13:16 | 43.66391 | 15.46238 | 33429 ft | 448 kts | 321° |
| 2026-04-25 13:16 | 43.68856 | 15.43605 | 33104 ft | 448 kts | 321° |
| 2026-04-25 13:16 | 43.71335 | 15.40956 | 32399 ft | 452 kts | 321° |
| 2026-04-25 13:17 | 43.73831 | 15.38284 | 31501 ft | 457 kts | 321° |
| 2026-04-25 13:17 | 43.76344 | 15.35592 | 30834 ft | 455 kts | 321° |
| 2026-04-25 13:17 | 43.78825 | 15.32931 | 30376 ft | 448 kts | 321° |
| 2026-04-25 13:17 | 43.81280 | 15.30295 | 29767 ft | 445 kts | 321° |
| 2026-04-25 13:18 | 43.83709 | 15.27686 | 29190 ft | 440 kts | 321° |
| 2026-04-25 13:18 | 43.86080 | 15.25137 | 28646 ft | 434 kts | 321° |
| 2026-04-25 13:18 | 43.88449 | 15.22587 | 28091 ft | 429 kts | 321° |
| 2026-04-25 13:18 | 43.90797 | 15.20060 | 27544 ft | 425 kts | 321° |
| 2026-04-25 13:19 | 43.93119 | 15.17557 | 26990 ft | 421 kts | 321° |
| 2026-04-25 13:19 | 43.95353 | 15.14973 | 26439 ft | 416 kts | 318° |
| 2026-04-25 13:19 | 43.97553 | 15.12390 | 25901 ft | 412 kts | 319° |
| 2026-04-25 13:19 | 43.99004 | 15.10705 | 25539 ft | 410 kts | 319° |
| 2026-04-25 13:20 | 44.01916 | 15.07329 | 24805 ft | 406 kts | 319° |
| 2026-04-25 13:20 | 44.04047 | 15.04851 | 24231 ft | 404 kts | 319° |
| 2026-04-25 13:20 | 44.06189 | 15.02349 | 23686 ft | 401 kts | 319° |
| 2026-04-25 13:20 | 44.08315 | 14.99861 | 23133 ft | 397 kts | 319° |
| 2026-04-25 13:21 | 44.10415 | 14.97399 | 22598 ft | 392 kts | 319° |
| 2026-04-25 13:21 | 44.12487 | 14.94967 | 22064 ft | 387 kts | 319° |
| 2026-04-25 13:21 | 44.14534 | 14.92562 | 21541 ft | 383 kts | 319° |
| 2026-04-25 13:21 | 44.16560 | 14.90179 | 21021 ft | 379 kts | 319° |
| 2026-04-25 13:22 | 44.18566 | 14.87818 | 20501 ft | 376 kts | 319° |
| 2026-04-25 13:22 | 44.20558 | 14.85471 | 19982 ft | 373 kts | 319° |
| 2026-04-25 13:22 | 44.22505 | 14.83176 | 19482 ft | 370 kts | 319° |
| 2026-04-25 13:23 | 44.26419 | 14.78553 | 18429 ft | 368 kts | 319° |
| 2026-04-25 13:23 | 44.28367 | 14.76252 | 17917 ft | 366 kts | 319° |
| 2026-04-25 13:23 | 44.30300 | 14.73967 | 17404 ft | 363 kts | 319° |
| 2026-04-25 13:23 | 44.32215 | 14.71698 | 16903 ft | 359 kts | 319° |
| 2026-04-25 13:24 | 44.34108 | 14.69453 | 16402 ft | 356 kts | 319° |
| 2026-04-25 13:24 | 44.35989 | 14.67221 | 15907 ft | 353 kts | 319° |
| 2026-04-25 13:24 | 44.37828 | 14.65037 | 15416 ft | 350 kts | 319° |
| 2026-04-25 13:24 | 44.39677 | 14.62838 | 14931 ft | 348 kts | 319° |
| 2026-04-25 13:25 | 44.41516 | 14.60651 | 14436 ft | 346 kts | 319° |
| 2026-04-25 13:25 | 44.43344 | 14.58474 | 13953 ft | 344 kts | 319° |
| 2026-04-25 13:25 | 44.45162 | 14.56307 | 13425 ft | 342 kts | 319° |
| 2026-04-25 13:25 | 44.46973 | 14.54146 | 12892 ft | 341 kts | 319° |
| 2026-04-25 13:26 | 44.48767 | 14.52004 | 12435 ft | 338 kts | 319° |
| 2026-04-25 13:26 | 44.50552 | 14.49873 | 11959 ft | 336 kts | 320° |
| 2026-04-25 13:26 | 44.52499 | 14.48077 | 11490 ft | 336 kts | 334° |
| 2026-04-25 13:26 | 44.54671 | 14.47036 | 11033 ft | 335 kts | 348° |
| 2026-04-25 13:27 | 44.56975 | 14.46637 | 10564 ft | 333 kts | 353° |
| 2026-04-25 13:27 | 44.59248 | 14.46309 | 10322 ft | 323 kts | 353° |
| 2026-04-25 13:27 | 44.61436 | 14.45986 | 10203 ft | 309 kts | 353° |
| 2026-04-25 13:27 | 44.63531 | 14.45673 | 10101 ft | 297 kts | 353° |
| 2026-04-25 13:28 | 44.65550 | 14.45370 | 9895 ft | 289 kts | 353° |
| 2026-04-25 13:28 | 44.66870 | 14.45172 | 9674 ft | 286 kts | 353° |
| 2026-04-25 13:28 | 44.69502 | 14.44777 | 9189 ft | 283 kts | 353° |
| 2026-04-25 13:28 | 44.71424 | 14.44489 | 8833 ft | 280 kts | 353° |
| 2026-04-25 13:29 | 44.73357 | 14.44199 | 8475 ft | 278 kts | 353° |
| 2026-04-25 13:29 | 44.75272 | 14.43912 | 8121 ft | 276 kts | 353° |
| 2026-04-25 13:29 | 44.77173 | 14.43625 | 7770 ft | 274 kts | 353° |
| 2026-04-25 13:30 | 44.80958 | 14.43056 | 7062 ft | 274 kts | 353° |
| 2026-04-25 13:30 | 44.82787 | 14.42783 | 6712 ft | 272 kts | 353° |
| 2026-04-25 13:30 | 44.84668 | 14.42499 | 6364 ft | 271 kts | 352° |
| 2026-04-25 13:31 | 44.88316 | 14.41532 | 5647 ft | 268 kts | 329° |
| 2026-04-25 13:31 | 44.89670 | 14.39805 | 5297 ft | 262 kts | 301° |
| 2026-04-25 13:31 | 44.90270 | 14.37419 | 4952 ft | 259 kts | 274° |
| 2026-04-25 13:31 | 44.90236 | 14.34894 | 4607 ft | 257 kts | 267° |
| 2026-04-25 13:32 | 44.90183 | 14.32429 | 4483 ft | 246 kts | 269° |
| 2026-04-25 13:32 | 44.90162 | 14.30056 | 4416 ft | 238 kts | 268° |
| 2026-04-25 13:32 | 44.90110 | 14.27776 | 4293 ft | 229 kts | 268° |
| 2026-04-25 13:32 | 44.90063 | 14.25551 | 4081 ft | 224 kts | 268° |
| 2026-04-25 13:33 | 44.90017 | 14.23368 | 3969 ft | 230 kts | 268° |
| 2026-04-25 13:33 | 44.89969 | 14.21135 | 3842 ft | 223 kts | 268° |
| 2026-04-25 13:33 | 44.89924 | 14.19001 | 3714 ft | 212 kts | 268° |
| 2026-04-25 13:33 | 44.89895 | 14.17644 | 3638 ft | 206 kts | 268° |
| 2026-04-25 13:34 | 44.89839 | 14.15008 | 3397 ft | 195 kts | 268° |
| 2026-04-25 13:34 | 44.89799 | 14.13125 | 3113 ft | 189 kts | 268° |
| 2026-04-25 13:34 | 44.89760 | 14.11299 | 2847 ft | 184 kts | 268° |
| 2026-04-25 13:34 | 44.89722 | 14.09524 | 2595 ft | 179 kts | 268° |
| 2026-04-25 13:35 | 44.89686 | 14.07819 | 2347 ft | 174 kts | 268° |
| 2026-04-25 13:35 | 44.89650 | 14.06124 | 2101 ft | 171 kts | 268° |
| 2026-04-25 13:35 | 44.89616 | 14.04501 | 1862 ft | 160 kts | 267° |
| 2026-04-25 13:35 | 44.89584 | 14.02999 | 1654 ft | 146 kts | 266° |
| 2026-04-25 13:36 | 44.89555 | 14.01633 | 1449 ft | 134 kts | 266° |
| 2026-04-25 13:36 | 44.89525 | 14.00298 | 1262 ft | 137 kts | 266° |
| 2026-04-25 13:36 | 44.89497 | 13.98972 | 1065 ft | 135 kts | 266° |
| 2026-04-25 13:36 | 44.89469 | 13.97647 | 881 ft | 135 kts | 266° |
| 2026-04-25 13:37 | 44.89455 | 13.96320 | 670 ft | 135 kts | 266° |
| 2026-04-25 13:37 | 44.89421 | 13.95044 | 464 ft | 132 kts | 266° |
| 2026-04-25 13:37 | 44.89389 | 13.93727 | 283 ft | 133 kts | 266° |
| 2026-04-25 13:37 | 44.89362 | 13.92615 | 217 ft | 76 kts | 268° |
| 2026-04-25 13:38 | 44.89354 | 13.92213 | 209 ft | 28 kts | 268° |
| 2026-04-25 13:38 | 44.89351 | 13.92019 | 206 ft | 11 kts | 269° |
| 2026-04-25 13:38 | 44.89379 | 13.91934 | 210 ft | 11 kts | 348° |
| 2026-04-25 13:38 | 44.89445 | 13.91935 | 208 ft | 6 kts | 359° |
| 2026-04-25 13:39 | 44.89474 | 13.91933 | 215 ft | 2 kts | 357° |
| 2026-04-25 13:39 | 44.89508 | 13.91930 | 214 ft | 7 kts | 357° |
| 2026-04-25 13:39 | 44.89556 | 13.91940 | 220 ft | 8 kts | 37° |
| 2026-04-25 13:39 | 44.89572 | 13.92039 | 222 ft | 13 kts | 91° |
| 2026-04-25 13:40 | 44.89574 | 13.92200 | 221 ft | 20 kts | 86° |
| 2026-04-25 13:40 | 44.89582 | 13.92380 | 218 ft | 12 kts | 84° |
| 2026-04-25 13:40 | 44.89637 | 13.92458 | 219 ft | 15 kts | 357° |
| 2026-04-25 13:40 | 44.89715 | 13.92451 | 220 ft | 6 kts | 343° |
| 2026-04-25 13:41 | 44.89748 | 13.92401 | 219 ft | 3 kts | 306° |
| 2026-04-25 13:41 | 44.89754 | 13.92390 | 227 ft | 0 kts | 306° |